Ridgecrest, CA

6:01 AM PDT on April 27, 2015 (GMT -0700)
City Hall | | Change Station
CLOSE
Current Station
Personal Weather Station
Location: Ridgecrest, CA
Elevation: 2315 ft
Nearby Weather Stations

Elev 2315 ft 35.62 °N, 117.67 °W | Updated 18 seconds ago

Clear
Clear
60.8 °F
Feels Like 60.8 °F
N
4.0
Wind Variable Wind from SE
Gusts 11.0 mph

Today
High -- | Low -- °F
--% Chance of Precip.
Yesterday
High -- | Low -- °F
Precip. -- in
6:03 AM 7:33 PM
Waxing Gibbous, 65% visible
Pressure 30.03 in
Visibility 10.0 miles
Clouds Few 28000 ft
Dew Point 27 °F
Humidity 27%
Rainfall 0.00 in
Snow Depth Not available.
UV 0 out of 12
Pollen 7.90 out of 12
Air Quality Not available.
Flu Activity Sporadic
METAR KNID 271256Z 33011KT 10SM FEW280 17/M05 A3006 RMK AO2 SLP167 ACSL OVHD T01671050 $

More Conditions Fewer Conditions

Pressure 30.03 in
Visibility 10.0 miles
Clouds Few 28000 ft
Dew Point 27 °F
Humidity 27%
Rainfall 0.00 in
Snow Depth Not available.
UV 0 out of 12
Pollen 7.90 out of 12
Air Quality Not available.
Flu Activity Sporadic
METAR KNID 271256Z 33011KT 10SM FEW280 17/M05 A3006 RMK AO2 SLP167 ACSL OVHD T01671050 $

More Conditions Fewer Conditions

10-Day Weather Forecast

Almanac

Astronomy

Apr. 27, 2015 Rise Set
Actual Time
Civil Twilight
Nautical Twilight
Astronomical Twilight
Moon
Length of Visible Light
Length of Day
Tomorrow will be .
, % of the Moon is Illuminated

Today's Extremes

State Highs State Lows

Community

WunderPhotos

Upload Photos

1,817,301 photos uploaded!

WunderBlogs® & News

Nearby

Air Quality

  Air Quality AQ Index Pollutant
Not available.

Snow Depth

Station Depth Elevation

Earthquake Activity

City Distance Mag. Time & Date
Minimum magnitude displayed is 2.5.

Coastal Water Temperatures

Place Temperature

Stations

Nearby Weather Stations

Station Location Temp. Windchill Dew Point Humidity Wind Precip. Elev Updated Type